Time;durP1;ratioP1;P1;durP2;ratioP2;P2;SDS_P1;SDS_P2;PMS_P1;PMS_P2;Temp;Humidity;BMP_temperature;BMP_pressure;BME280_temperature;BME280_humidity;BME280_pressure;Samples;Min_cycle;Max_cycle;Signal;HPM_P1;HPM_P2
2020/12/04 00:02:11;;;;;;;19.58;10.23;;;6.70;77.50;;;;;;5018889;28;20036;-50
2020/12/04 00:04:38;;;;;;;18.80;11.98;;;6.70;77.40;;;;;;5037810;28;20033;-47
2020/12/04 00:07:04;;;;;;;16.42;11.30;;;6.70;77.50;;;;;;5037242;28;20030;-47
2020/12/04 00:09:30;;;;;;;20.48;12.73;;;6.80;77.60;;;;;;5037348;28;20037;-48
2020/12/04 00:11:56;;;;;;;17.65;10.40;;;6.80;77.50;;;;;;5037378;28;20057;-50
2020/12/04 00:14:21;;;;;;;17.13;10.43;;;6.90;77.00;;;;;;5037167;28;20029;-47
2020/12/04 00:16:47;;;;;;;16.65;10.60;;;6.90;77.10;;;;;;5037092;28;20041;-50
2020/12/04 00:19:13;;;;;;;16.25;10.35;;;6.90;77.00;;;;;;5018405;28;20089;-48
2020/12/04 00:21:40;;;;;;;15.30;10.77;;;7.00;76.60;;;;;;5037247;28;20033;-48
2020/12/04 00:24:05;;;;;;;19.92;11.77;;;7.20;76.10;;;;;;5036890;28;20045;-50
2020/12/04 00:26:38;;;;;;;22.08;12.63;;;7.10;76.40;;;;;;4985724;28;20137;-47
2020/12/04 00:29:05;;;;;;;21.85;13.15;;;7.10;76.50;;;;;;5036793;28;20045;-47
2020/12/04 00:31:32;;;;;;;18.38;11.48;;;7.10;76.40;;;;;;5037135;28;20029;-48
2020/12/04 00:33:59;;;;;;;16.25;10.25;;;7.00;76.70;;;;;;5014880;28;20072;-49
2020/12/04 00:36:28;;;;;;;16.40;10.27;;;6.80;77.60;;;;;;5014582;28;20138;-48
2020/12/04 00:38:55;;;;;;;17.90;10.82;;;6.80;77.70;;;;;;5014970;28;20548;-48
2020/12/04 00:41:20;;;;;;;15.95;10.60;;;6.90;78.00;;;;;;5014786;28;20037;-48
2020/12/04 00:43:46;;;;;;;15.38;9.27;;;7.00;77.90;;;;;;5014682;28;20174;-49
2020/12/04 00:46:13;;;;;;;16.77;9.57;;;6.90;77.80;;;;;;5014694;28;20034;-48
2020/12/04 00:48:39;;;;;;;15.75;10.20;;;6.80;78.30;;;;;;5014679;28;20056;-48
2020/12/04 00:51:05;;;;;;;17.33;11.02;;;7.00;78.10;;;;;;5014477;28;20092;-49
2020/12/04 00:53:31;;;;;;;11.75;7.68;;;7.00;77.80;;;;;;5014748;28;20564;-47
2020/12/04 00:55:57;;;;;;;17.10;10.23;;;7.10;77.00;;;;;;5014769;28;20112;-48
2020/12/04 00:58:23;;;;;;;15.07;9.43;;;7.10;76.90;;;;;;5014117;28;20034;-50
2020/12/04 01:00:48;;;;;;;15.15;9.50;;;7.10;77.40;;;;;;5014474;28;20030;-47
2020/12/04 01:03:14;;;;;;;15.43;9.18;;;7.10;77.80;;;;;;5014558;28;20029;-50
2020/12/04 01:05:40;;;;;;;13.82;8.48;;;7.00;77.80;;;;;;5031991;28;20045;-48
2020/12/04 01:08:05;;;;;;;11.40;7.97;;;7.00;77.70;;;;;;5036404;28;20030;-50
2020/12/04 01:10:31;;;;;;;12.82;7.53;;;6.90;78.00;;;;;;5017952;28;20037;-47
2020/12/04 01:12:57;;;;;;;12.88;8.85;;;6.90;78.50;;;;;;5036255;28;20037;-48
2020/12/04 01:15:23;;;;;;;11.95;7.97;;;6.80;78.50;;;;;;5036108;28;20430;-50
2020/12/04 01:17:49;;;;;;;14.27;8.93;;;6.80;78.70;;;;;;5036087;28;20037;-50
2020/12/04 01:20:14;;;;;;;13.55;8.32;;;6.80;78.90;;;;;;5036339;28;20032;-48
2020/12/04 01:22:40;;;;;;;10.77;6.88;;;6.80;78.60;;;;;;5036289;28;20116;-46
2020/12/04 01:25:06;;;;;;;13.45;8.38;;;6.80;78.60;;;;;;5035805;28;20053;-50
2020/12/04 01:27:32;;;;;;;12.07;8.13;;;6.80;78.50;;;;;;5036125;28;20079;-49
2020/12/04 01:29:57;;;;;;;11.98;8.07;;;6.80;78.80;;;;;;5017209;28;20034;-50
2020/12/04 01:32:23;;;;;;;13.77;8.57;;;6.70;78.80;;;;;;5035778;28;20025;-49
2020/12/04 01:34:49;;;;;;;12.13;7.97;;;6.70;78.70;;;;;;5035728;28;20029;-50
2020/12/04 01:37:14;;;;;;;10.30;6.50;;;6.80;78.80;;;;;;5035429;28;20041;-47
2020/12/04 01:39:40;;;;;;;10.60;7.43;;;6.70;79.30;;;;;;5035797;28;20025;-47
2020/12/04 01:42:06;;;;;;;7.07;3.97;;;6.70;79.00;;;;;;5035794;28;20461;-47
2020/12/04 01:44:32;;;;;;;12.40;7.30;;;6.70;79.20;;;;;;5035325;28;20030;-49
2020/12/04 01:46:58;;;;;;;12.52;7.00;;;6.70;79.00;;;;;;5035410;28;20030;-50
2020/12/04 01:49:24;;;;;;;11.32;5.97;;;6.70;79.30;;;;;;5035577;28;20033;-48
2020/12/04 01:51:51;;;;;;;12.68;6.32;;;6.60;79.30;;;;;;4967936;28;20041;-49
2020/12/04 01:54:18;;;;;;;12.85;7.80;;;6.70;79.60;;;;;;5035358;28;20418;-49
2020/12/04 01:56:46;;;;;;;8.90;5.93;;;6.60;79.60;;;;;;4968101;28;20359;-47
2020/12/04 01:59:12;;;;;;;10.52;7.07;;;6.60;80.00;;;;;;5035073;28;20025;-47
2020/12/04 02:01:43;;;;;;;10.02;6.25;;;6.60;79.50;;;;;;5035351;28;20025;-48
2020/12/04 02:04:11;;;;;;;12.57;7.82;;;6.50;79.80;;;;;;5000478;28;20485;-47
2020/12/04 02:06:53;;;;;;;9.65;5.63;;;6.60;80.00;;;;;;5016755;28;20041;-47
2020/12/04 02:09:46;;;;;;;7.38;5.03;;;6.40;80.10;;;;;;5016698;28;20500;-49
2020/12/04 02:12:16;;;;;;;11.10;6.05;;;6.50;80.30;;;;;;5035279;28;20030;-48
2020/12/04 02:14:43;;;;;;;5.57;4.20;;;6.40;80.30;;;;;;5012611;28;20052;-48
2020/12/04 02:17:09;;;;;;;7.90;5.15;;;6.40;80.50;;;;;;5012946;28;20073;-49
2020/12/04 02:19:39;;;;;;;8.10;4.80;;;6.40;80.90;;;;;;5012113;28;20071;-47
2020/12/04 02:22:05;;;;;;;7.05;4.70;;;6.40;80.60;;;;;;5012844;28;20104;-49
2020/12/04 02:24:31;;;;;;;9.35;5.65;;;6.40;80.50;;;;;;5012535;28;20140;-47
2020/12/04 02:26:58;;;;;;;12.32;7.25;;;6.40;80.20;;;;;;5012965;28;20038;-50
2020/12/04 02:29:25;;;;;;;10.10;5.05;;;6.40;80.60;;;;;;5012463;28;20038;-48
2020/12/04 02:31:51;;;;;;;6.28;4.07;;;6.40;80.50;;;;;;5012778;28;20053;-49
2020/12/04 02:34:17;;;;;;;11.25;5.65;;;6.40;80.70;;;;;;4996236;28;20267;-50
2020/12/04 02:36:42;;;;;;;8.60;4.63;;;6.30;80.60;;;;;;5012401;28;20038;-47
2020/12/04 02:39:08;;;;;;;12.18;6.82;;;6.30;81.20;;;;;;4979569;28;20036;-49
2020/12/04 02:41:34;;;;;;;9.80;4.85;;;6.30;80.90;;;;;;5012576;28;20509;-48
2020/12/04 02:44:01;;;;;;;7.13;4.40;;;6.30;80.50;;;;;;5012414;28;20072;-49
2020/12/04 02:46:27;;;;;;;7.80;4.78;;;6.30;80.70;;;;;;5030097;28;20414;-50
2020/12/04 02:48:53;;;;;;;7.50;5.05;;;6.30;80.90;;;;;;5034192;28;20029;-49
2020/12/04 02:51:18;;;;;;;9.95;6.32;;;6.30;80.60;;;;;;5034209;28;20192;-49
2020/12/04 02:53:44;;;;;;;11.98;7.43;;;6.30;80.50;;;;;;5034268;28;20048;-48
2020/12/04 02:56:15;;;;;;;10.32;4.88;;;6.40;80.40;;;;;;5034580;28;20048;-49
2020/12/04 02:58:41;;;;;;;10.93;6.95;;;6.30;80.30;;;;;;5033607;28;20071;-48
2020/12/04 03:01:06;;;;;;;11.52;7.43;;;6.30;80.20;;;;;;5015635;28;20120;-50
2020/12/04 03:03:32;;;;;;;9.50;5.65;;;6.40;80.30;;;;;;5033847;28;20118;-47
2020/12/04 03:05:58;;;;;;;8.32;5.30;;;6.30;80.30;;;;;;5034181;28;20025;-50
2020/12/04 03:08:25;;;;;;;10.23;6.72;;;6.30;80.10;;;;;;5016443;28;20025;-48
2020/12/04 03:10:52;;;;;;;14.18;7.82;;;6.40;80.10;;;;;;5034242;28;20476;-47
2020/12/04 03:13:17;;;;;;;10.27;6.93;;;6.50;79.80;;;;;;5034056;28;20026;-51
2020/12/04 03:15:43;;;;;;;13.20;8.85;;;6.50;79.60;;;;;;5032426;28;20509;-50
2020/12/04 03:18:09;;;;;;;12.57;7.88;;;6.60;79.50;;;;;;5034082;28;20069;-48
2020/12/04 03:20:35;;;;;;;12.93;5.35;;;6.50;79.30;;;;;;5034201;28;20029;-47
2020/12/04 03:23:00;;;;;;;14.38;8.60;;;6.40;79.60;;;;;;5015539;28;20091;-50
2020/12/04 03:25:26;;;;;;;12.55;7.20;;;6.50;79.60;;;;;;5033430;28;20056;-48
2020/12/04 03:27:52;;;;;;;13.07;7.50;;;6.50;79.10;;;;;;5033531;28;20022;-50
2020/12/04 03:30:17;;;;;;;13.00;7.55;;;6.50;79.30;;;;;;5033115;28;20115;-47
2020/12/04 03:32:43;;;;;;;12.77;6.38;;;6.50;79.00;;;;;;5033214;28;20026;-50
2020/12/04 03:35:09;;;;;;;12.38;7.75;;;6.40;79.10;;;;;;5014949;28;20041;-49
2020/12/04 03:37:35;;;;;;;14.02;8.02;;;6.60;79.10;;;;;;5014757;28;20041;-48
2020/12/04 03:40:00;;;;;;;13.98;8.38;;;6.50;79.40;;;;;;5033484;28;20025;-49
2020/12/04 03:42:26;;;;;;;14.40;8.32;;;6.60;79.10;;;;;;5014945;28;20037;-49
2020/12/04 03:44:52;;;;;;;10.27;5.47;;;6.50;79.10;;;;;;5015045;28;20030;-50
2020/12/04 03:47:17;;;;;;;13.02;8.55;;;6.50;79.40;;;;;;5033400;28;20033;-48
2020/12/04 03:49:43;;;;;;;12.45;7.30;;;6.50;79.60;;;;;;5033104;28;20029;-48
2020/12/04 03:52:09;;;;;;;19.23;11.20;;;6.40;79.90;;;;;;5033379;28;20025;-50
2020/12/04 03:54:35;;;;;;;12.82;7.60;;;6.60;79.70;;;;;;5014747;28;20046;-50
2020/12/04 03:57:00;;;;;;;13.63;8.25;;;6.60;79.70;;;;;;4998323;28;20057;-49
2020/12/04 03:59:26;;;;;;;15.30;9.20;;;6.60;79.50;;;;;;5033211;28;20021;-50
2020/12/04 04:01:52;;;;;;;15.77;8.85;;;6.70;79.40;;;;;;5033253;28;20034;-49
2020/12/04 04:04:17;;;;;;;14.68;8.48;;;6.70;79.20;;;;;;5033113;28;20033;-46
2020/12/04 04:06:43;;;;;;;13.43;7.10;;;6.60;79.60;;;;;;5033226;28;20045;-49
2020/12/04 04:09:09;;;;;;;19.85;10.20;;;6.60;79.70;;;;;;5033094;28;20036;-48
2020/12/04 04:11:34;;;;;;;10.68;7.60;;;6.70;79.50;;;;;;5032890;28;20034;-51
2020/12/04 04:14:00;;;;;;;11.00;8.13;;;6.70;79.40;;;;;;5033389;28;20029;-49
2020/12/04 04:16:26;;;;;;;10.05;5.95;;;6.80;79.20;;;;;;5033134;28;20104;-48
2020/12/04 04:18:52;;;;;;;10.23;6.50;;;6.70;78.90;;;;;;5033073;28;20048;-49
2020/12/04 04:21:17;;;;;;;11.00;6.13;;;6.70;79.70;;;;;;5033030;28;20025;-48
2020/12/04 04:23:43;;;;;;;9.02;5.63;;;6.70;79.50;;;;;;5032789;28;20025;-47
2020/12/04 04:26:09;;;;;;;11.30;6.82;;;6.60;79.80;;;;;;5033139;28;20021;-49
2020/12/04 04:28:34;;;;;;;9.98;6.47;;;6.70;79.80;;;;;;5032882;28;20028;-49
2020/12/04 04:31:00;;;;;;;8.68;4.95;;;6.70;79.40;;;;;;5031152;28;20048;-47
2020/12/04 04:33:26;;;;;;;10.18;5.70;;;6.70;79.50;;;;;;5032884;28;20100;-48
2020/12/04 04:35:52;;;;;;;10.05;6.50;;;6.70;79.50;;;;;;5032991;28;20036;-49
2020/12/04 04:38:18;;;;;;;10.27;6.78;;;6.80;79.30;;;;;;5033048;28;20041;-51
2020/12/04 04:40:43;;;;;;;8.93;5.07;;;6.70;79.30;;;;;;5032800;28;20779;-47
2020/12/04 04:43:11;;;;;;;9.63;6.03;;;6.70;79.20;;;;;;5035414;28;20482;-47
2020/12/04 04:45:44;;;;;;;8.95;5.90;;;6.80;79.00;;;;;;5017915;28;20041;-50
2020/12/04 04:48:28;;;;;;;9.75;7.03;;;6.80;79.00;;;;;;5036727;28;20026;-47
2020/12/04 04:50:58;;;;;;;11.77;7.72;;;6.80;79.20;;;;;;5036423;28;20053;-49
2020/12/04 04:53:24;;;;;;;10.35;6.43;;;6.80;78.80;;;;;;5036670;28;20100;-48
2020/12/04 04:55:51;;;;;;;11.57;6.90;;;6.90;78.50;;;;;;5036135;28;20361;-50
2020/12/04 04:58:18;;;;;;;11.68;7.85;;;6.90;78.50;;;;;;5035998;28;20103;-49
2020/12/04 05:00:43;;;;;;;16.77;10.52;;;6.90;78.40;;;;;;5036334;28;20033;-48
2020/12/04 05:03:10;;;;;;;11.95;7.88;;;7.00;78.30;;;;;;4985138;28;20057;-49
2020/12/04 05:05:51;;;;;;;12.10;8.85;;;7.00;78.00;;;;;;5048187;28;20021;-50
2020/12/04 05:08:22;;;;;;;18.83;12.10;;;6.90;77.90;;;;;;5056233;28;20104;-50
2020/12/04 05:10:50;;;;;;;18.55;11.27;;;7.00;78.10;;;;;;5030505;28;20091;-50
2020/12/04 05:13:20;;;;;;;34.53;16.30;;;7.00;77.80;;;;;;5054666;28;20032;-49
2020/12/04 05:15:46;;;;;;;23.98;12.95;;;7.00;78.00;;;;;;5040298;28;20500;-48
2020/12/04 05:18:15;;;;;;;34.08;16.42;;;7.00;77.90;;;;;;5035962;28;20423;-50
2020/12/04 05:20:52;;;;;;;20.23;10.57;;;7.00;77.90;;;;;;5036059;28;20030;-49
2020/12/04 05:23:18;;;;;;;16.10;9.77;;;7.00;77.70;;;;;;5036212;28;20106;-49
2020/12/04 05:25:46;;;;;;;25.63;15.27;;;7.00;78.10;;;;;;5035605;28;20099;-50
2020/12/04 05:28:17;;;;;;;35.40;16.48;;;7.10;78.10;;;;;;5034120;28;20579;-47
2020/12/04 05:30:45;;;;;;;27.73;13.80;;;7.00;78.20;;;;;;5036831;28;20032;-50
2020/12/04 05:33:12;;;;;;;18.40;9.00;;;6.90;78.80;;;;;;5021869;28;20116;-48
2020/12/04 05:35:38;;;;;;;17.02;9.75;;;6.90;78.80;;;;;;5033955;28;20041;-50
2020/12/04 05:38:07;;;;;;;17.30;9.75;;;6.90;78.70;;;;;;5035602;28;20524;-49
2020/12/04 05:40:35;;;;;;;14.88;6.95;;;6.90;78.70;;;;;;5035587;28;20060;-50
2020/12/04 05:43:02;;;;;;;22.65;10.82;;;6.90;78.80;;;;;;5033618;28;20524;-50
2020/12/04 05:45:27;;;;;;;15.45;7.82;;;6.90;78.60;;;;;;5035688;28;20056;-48
2020/12/04 05:47:53;;;;;;;12.32;5.47;;;6.90;79.00;;;;;;5035398;28;20073;-48
2020/12/04 05:50:19;;;;;;;13.63;7.78;;;6.90;79.10;;;;;;5035540;28;20049;-48
2020/12/04 05:52:48;;;;;;;13.98;8.45;;;6.80;79.00;;;;;;5017183;28;20039;-48
2020/12/04 05:55:15;;;;;;;10.05;6.05;;;6.90;79.00;;;;;;5034404;28;20032;-50
2020/12/04 05:57:44;;;;;;;17.38;8.75;;;6.80;79.20;;;;;;5035753;28;20087;-47
2020/12/04 06:00:10;;;;;;;16.25;9.60;;;6.80;79.50;;;;;;5038035;28;20029;-50
2020/12/04 06:02:38;;;;;;;11.45;6.90;;;6.80;79.60;;;;;;5044282;28;20086;-47
2020/12/04 06:05:04;;;;;;;11.63;7.38;;;6.80;80.00;;;;;;5036687;28;20107;-49
2020/12/04 06:07:29;;;;;;;13.05;6.78;;;6.70;79.60;;;;;;5037543;28;20481;-49
2020/12/04 06:09:56;;;;;;;11.40;7.10;;;6.70;79.60;;;;;;5042797;28;20513;-49
2020/12/04 06:12:23;;;;;;;15.27;9.35;;;6.70;79.70;;;;;;5035200;28;20069;-49
2020/12/04 06:14:49;;;;;;;12.10;7.47;;;6.70;79.90;;;;;;5035130;28;20036;-49
2020/12/04 06:17:15;;;;;;;9.77;5.35;;;6.80;79.80;;;;;;5016498;28;20041;-49
2020/12/04 06:19:42;;;;;;;16.63;10.05;;;6.70;79.70;;;;;;5033091;28;20053;-47
2020/12/04 06:22:19;;;;;;;15.68;9.48;;;6.70;80.00;;;;;;5034852;28;20026;-49
2020/12/04 06:27:45;;;;;;;13.50;6.32;;;6.60;80.20;;;;;;5034996;28;20421;-50
2020/12/04 06:30:15;;;;;;;11.88;5.75;;;6.60;80.20;;;;;;5034630;28;20036;-49
2020/12/04 06:32:49;;;;;;;21.98;11.75;;;6.60;80.40;;;;;;5032828;28;20042;-47
2020/12/04 06:35:36;;;;;;;22.45;11.48;;;6.60;80.50;;;;;;5034913;28;20060;-49
2020/12/04 06:38:02;;;;;;;11.23;6.30;;;6.70;80.40;;;;;;5023447;28;20197;-50
2020/12/04 06:40:30;;;;;;;16.95;8.63;;;6.70;80.20;;;;;;5034454;28;20116;-47
2020/12/04 06:42:58;;;;;;;11.60;6.07;;;6.70;80.20;;;;;;5034543;28;20080;-49
2020/12/04 06:45:44;;;;;;;8.27;4.88;;;6.70;80.00;;;;;;5012374;28;20045;-47
2020/12/04 06:48:14;;;;;;;15.60;8.65;;;6.70;80.10;;;;;;5012406;28;20037;-49
2020/12/04 06:50:50;;;;;;;12.27;7.13;;;6.80;79.90;;;;;;5012409;28;20064;-50
2020/12/04 06:53:16;;;;;;;9.27;5.18;;;6.80;80.20;;;;;;5012463;28;20444;-49
2020/12/04 06:55:44;;;;;;;17.15;10.05;;;6.80;80.20;;;;;;4979499;28;20560;-49
2020/12/04 06:58:10;;;;;;;15.93;10.10;;;6.80;80.00;;;;;;5012207;28;20160;-49
2020/12/04 07:00:36;;;;;;;35.70;21.83;;;6.90;79.70;;;;;;5019771;28;20042;-47
2020/12/04 07:03:04;;;;;;;9.43;6.10;;;6.90;79.50;;;;;;5020848;28;20040;-49
2020/12/04 07:05:32;;;;;;;10.52;6.72;;;6.90;79.20;;;;;;5016721;28;20041;-50
2020/12/04 07:08:03;;;;;;;10.07;6.88;;;6.90;79.50;;;;;;5012059;28;20100;-48
2020/12/04 07:10:30;;;;;;;13.35;9.30;;;6.90;79.20;;;;;;5011972;28;20045;-49
2020/12/04 07:12:58;;;;;;;13.75;9.55;;;7.00;79.50;;;;;;4995756;28;20399;-50
2020/12/04 07:15:24;;;;;;;15.00;7.90;;;7.00;79.50;;;;;;5013929;28;20491;-48
2020/12/04 07:17:50;;;;;;;13.57;9.27;;;7.00;79.10;;;;;;5035358;28;20037;-50
2020/12/04 07:20:15;;;;;;;7.07;4.47;;;7.00;79.10;;;;;;5040024;28;20116;-50
2020/12/04 07:22:41;;;;;;;12.82;8.75;;;7.00;78.90;;;;;;5015439;28;20091;-51
2020/12/04 07:25:07;;;;;;;18.95;13.05;;;7.10;79.20;;;;;;5047657;28;20060;-49
2020/12/04 07:27:33;;;;;;;12.80;8.35;;;7.10;79.10;;;;;;5038585;28;20025;-50
2020/12/04 07:29:58;;;;;;;12.50;9.50;;;7.00;79.20;;;;;;5039187;28;20112;-50
2020/12/04 07:32:25;;;;;;;13.13;8.30;;;7.10;79.30;;;;;;5039590;28;20155;-49
2020/12/04 07:34:52;;;;;;;5.72;4.35;;;7.10;79.20;;;;;;5047352;28;20037;-47
2020/12/04 07:37:18;;;;;;;9.75;5.18;;;7.10;79.30;;;;;;5036452;28;20045;-49
2020/12/04 07:39:45;;;;;;;9.27;5.00;;;7.00;79.30;;;;;;5051955;28;20028;-49
2020/12/04 07:42:13;;;;;;;8.65;5.38;;;7.00;79.30;;;;;;5048852;28;20023;-49
2020/12/04 07:44:41;;;;;;;7.70;4.50;;;7.00;79.10;;;;;;5044181;28;20027;-47
2020/12/04 07:47:14;;;;;;;9.40;5.10;;;7.10;79.20;;;;;;5033845;28;20083;-46
2020/12/04 07:49:44;;;;;;;7.28;5.07;;;7.00;79.50;;;;;;5035480;28;20431;-48
2020/12/04 07:52:17;;;;;;;8.80;4.55;;;7.00;79.30;;;;;;5042792;28;20517;-50
2020/12/04 07:54:43;;;;;;;9.02;5.20;;;7.00;79.30;;;;;;5044436;28;20049;-47
2020/12/04 07:57:11;;;;;;;19.73;15.48;;;7.00;79.30;;;;;;5053101;28;20654;-47
2020/12/04 07:59:38;;;;;;;11.05;8.18;;;7.10;79.20;;;;;;5050965;28;20083;-46
2020/12/04 08:02:05;;;;;;;9.45;6.00;;;7.10;79.40;;;;;;5018386;28;20033;-46
2020/12/04 08:04:33;;;;;;;15.10;7.82;;;7.10;79.50;;;;;;5041798;28;20047;-49
2020/12/04 08:07:10;;;;;;;10.85;4.95;;;7.30;79.40;;;;;;5034483;28;20115;-47
2020/12/04 08:09:38;;;;;;;8.52;5.55;;;7.20;79.00;;;;;;5022381;28;20040;-50
2020/12/04 08:12:12;;;;;;;10.48;6.50;;;7.20;79.20;;;;;;5041734;28;20029;-47
2020/12/04 08:14:39;;;;;;;9.25;5.50;;;7.20;79.30;;;;;;5038543;28;20033;-49
2020/12/04 08:17:06;;;;;;;10.82;5.25;;;7.10;78.90;;;;;;5040470;28;20025;-48
2020/12/04 08:19:34;;;;;;;17.13;10.35;;;7.10;79.20;;;;;;5021751;28;20096;-50
2020/12/04 08:22:01;;;;;;;9.60;6.05;;;7.20;79.50;;;;;;5015476;28;20042;-49
2020/12/04 08:24:37;;;;;;;8.70;6.45;;;7.20;79.40;;;;;;4976452;28;20054;-46
2020/12/04 08:27:09;;;;;;;11.05;7.53;;;7.20;79.20;;;;;;5024707;28;20029;-48
2020/12/04 08:29:38;;;;;;;12.48;8.15;;;7.30;79.00;;;;;;4983189;28;20038;-51
2020/12/04 08:32:19;;;;;;;12.02;9.38;;;7.50;78.40;;;;;;4981987;28;20148;-49
2020/12/04 08:34:45;;;;;;;9.75;6.35;;;7.60;78.30;;;;;;4983426;28;20035;-53
2020/12/04 08:37:12;;;;;;;12.45;8.15;;;7.70;77.70;;;;;;4981857;28;20054;-47
2020/12/04 08:39:41;;;;;;;11.13;6.40;;;7.80;78.10;;;;;;4986280;28;20098;-53
2020/12/04 08:42:22;;;;;;;11.95;8.20;;;7.80;77.20;;;;;;4981777;28;20034;-49
2020/12/04 08:44:59;;;;;;;9.25;6.32;;;7.90;77.10;;;;;;4949128;29;20539;-47
2020/12/04 08:47:30;;;;;;;10.90;6.47;;;7.90;77.00;;;;;;4956256;29;20038;-46
2020/12/04 08:49:56;;;;;;;8.88;5.20;;;7.90;77.30;;;;;;4960865;28;20391;-50
2020/12/04 08:52:39;;;;;;;11.13;5.50;;;7.80;77.70;;;;;;4975272;28;20062;-49
2020/12/04 08:55:13;;;;;;;5.32;3.60;;;7.90;77.90;;;;;;4975449;28;20034;-48
2020/12/04 08:57:40;;;;;;;10.27;6.90;;;7.80;77.60;;;;;;4975266;28;20050;-50
2020/12/04 09:00:08;;;;;;;10.85;4.93;;;7.90;77.30;;;;;;4986432;28;20033;-49
2020/12/04 09:02:35;;;;;;;11.15;7.15;;;8.00;77.20;;;;;;5014375;28;20032;-46
2020/12/04 09:05:02;;;;;;;9.90;4.45;;;8.20;76.60;;;;;;5019018;28;20121;-46
2020/12/04 09:07:28;;;;;;;4.38;3.20;;;8.30;90.90;;;;;;5029957;28;20029;-49
2020/12/04 09:09:54;;;;;;;6.70;4.70;;;8.10;75.70;;;;;;5001064;28;20083;-47
2020/12/04 09:12:21;;;;;;;10.30;5.70;;;8.10;75.80;;;;;;5034137;28;20029;-48
2020/12/04 09:14:49;;;;;;;7.63;5.03;;;8.10;75.90;;;;;;5033859;28;20037;-47
2020/12/04 09:17:15;;;;;;;10.90;7.28;;;8.10;76.40;;;;;;5036074;28;20022;-49
2020/12/04 09:19:40;;;;;;;9.70;6.75;;;8.10;76.40;;;;;;5036008;28;20022;-49
2020/12/04 09:22:06;;;;;;;8.90;5.53;;;8.10;76.00;;;;;;5036778;28;20025;-48
2020/12/04 09:24:32;;;;;;;7.07;4.82;;;8.00;76.00;;;;;;5042647;28;20056;-45
2020/12/04 09:26:58;;;;;;;10.35;6.22;;;8.00;76.40;;;;;;5035732;28;20082;-47
2020/12/04 09:29:24;;;;;;;12.38;9.15;;;8.00;76.40;;;;;;5034412;28;20034;-50
2020/12/04 09:31:50;;;;;;;10.85;6.18;;;8.20;76.30;;;;;;5047196;28;20032;-49
2020/12/04 09:34:16;;;;;;;9.68;5.53;;;8.20;75.90;;;;;;5055543;28;20021;-48
2020/12/04 09:36:41;;;;;;;8.60;5.22;;;8.20;75.70;;;;;;5055280;28;20029;-47
2020/12/04 09:39:07;;;;;;;9.38;5.60;;;8.20;75.90;;;;;;5055522;28;20374;-47
2020/12/04 09:41:42;;;;;;;9.63;6.82;;;8.20;75.80;;;;;;5025192;28;20038;-47
2020/12/04 09:44:08;;;;;;;11.88;8.02;;;8.40;78.50;;;;;;5044628;28;20047;-47
2020/12/04 09:46:34;;;;;;;15.30;10.60;;;8.40;75.10;;;;;;5017672;28;20117;-47
2020/12/04 09:48:59;;;;;;;13.65;9.13;;;8.50;75.60;;;;;;5035684;28;20494;-47
2020/12/04 09:51:25;;;;;;;8.13;4.97;;;8.60;76.00;;;;;;5035089;28;20611;-48
2020/12/04 09:53:51;;;;;;;12.27;8.93;;;8.60;77.00;;;;;;5035247;28;20022;-47
2020/12/04 09:56:17;;;;;;;11.98;8.98;;;8.60;75.10;;;;;;5035469;28;20035;-47
2020/12/04 09:58:43;;;;;;;10.07;6.82;;;8.60;75.20;;;;;;5035023;28;20476;-48
2020/12/04 10:01:11;;;;;;;13.63;8.40;;;8.70;77.40;;;;;;5035504;28;20025;-47
2020/12/04 10:03:37;;;;;;;11.98;7.72;;;8.80;76.90;;;;;;5035106;28;20037;-47
2020/12/04 10:06:04;;;;;;;12.50;9.05;;;8.80;74.80;;;;;;5034416;28;20025;-48
2020/12/04 10:08:29;;;;;;;10.40;7.15;;;8.90;74.50;;;;;;5044007;28;20545;-47
2020/12/04 10:10:55;;;;;;;8.50;5.63;;;8.80;73.70;;;;;;5043420;28;20026;-48
2020/12/04 10:13:21;;;;;;;10.23;6.85;;;8.70;74.00;;;;;;5044351;28;20030;-49
2020/12/04 10:15:47;;;;;;;10.52;6.85;;;8.70;74.40;;;;;;5035221;28;20245;-47
2020/12/04 10:18:13;;;;;;;12.85;7.68;;;8.70;74.70;;;;;;5034834;28;20416;-49
2020/12/04 10:20:39;;;;;;;9.82;6.38;;;8.80;74.80;;;;;;5034982;28;20377;-48
2020/12/04 10:23:05;;;;;;;17.02;11.18;;;8.80;74.10;;;;;;5034925;28;20532;-47
2020/12/04 10:25:31;;;;;;;12.15;6.90;;;9.00;73.90;;;;;;5045569;28;20045;-48
2020/12/04 10:27:56;;;;;;;12.70;7.22;;;9.00;73.20;;;;;;5034784;28;20029;-49
2020/12/04 10:30:22;;;;;;;9.57;5.25;;;9.20;74.10;;;;;;5039274;28;20033;-47
2020/12/04 10:32:48;;;;;;;16.45;9.32;;;9.20;77.20;;;;;;5034922;28;20434;-45
2020/12/04 10:35:14;;;;;;;11.70;6.63;;;9.30;73.40;;;;;;5016326;28;20038;-44
2020/12/04 10:37:40;;;;;;;13.73;8.60;;;9.30;73.10;;;;;;5034208;28;20551;-45
2020/12/04 10:40:06;;;;;;;10.75;6.28;;;9.40;72.70;;;;;;5032656;28;20096;-44
2020/12/04 10:42:32;;;;;;;7.85;5.65;;;9.50;72.60;;;;;;5034415;28;20068;-45
2020/12/04 10:44:58;;;;;;;14.27;8.50;;;9.50;71.90;;;;;;5034304;28;20040;-54
2020/12/04 10:47:24;;;;;;;13.45;8.48;;;9.70;71.50;;;;;;5034334;28;20028;-50
2020/12/04 10:49:50;;;;;;;12.30;8.20;;;10.00;70.60;;;;;;5034204;28;20531;-50
2020/12/04 10:52:15;;;;;;;13.02;8.35;;;10.10;70.60;;;;;;5036749;28;20033;-46
2020/12/04 10:54:41;;;;;;;11.57;7.38;;;10.40;69.60;;;;;;5041689;28;20048;-47
2020/12/04 10:57:07;;;;;;;13.00;10.40;;;10.50;68.80;;;;;;5036511;28;20052;-43
2020/12/04 10:59:33;;;;;;;8.05;6.97;;;10.70;68.30;;;;;;5024128;28;20033;-44
2020/12/04 11:02:09;;;;;;;11.55;9.32;;;;;;;;;;5033077;28;20041;-44
2020/12/04 11:07:27;;;;;;;8.82;7.07;;;11.10;71.30;;;;;;5010293;28;20037;-51
2020/12/04 11:09:53;;;;;;;11.90;8.45;;;11.20;66.70;;;;;;5034031;28;20030;-51
2020/12/04 11:12:19;;;;;;;14.38;9.43;;;11.40;65.70;;;;;;5038785;28;20508;-46
2020/12/04 11:14:44;;;;;;;9.40;7.97;;;11.10;66.90;;;;;;5053323;28;20036;-46
2020/12/04 11:17:11;;;;;;;14.18;11.73;;;;;;;;;;5044069;28;20037;-46
2020/12/04 11:19:37;;;;;;;10.38;7.72;;;11.40;64.90;;;;;;5033665;28;20071;-46
2020/12/04 11:22:03;;;;;;;14.43;13.23;;;11.60;65.10;;;;;;5033550;28;20100;-45
2020/12/04 11:24:29;;;;;;;20.50;18.58;;;11.90;64.90;;;;;;5033422;28;20041;-50
2020/12/04 11:26:55;;;;;;;14.50;10.32;;;12.50;62.90;;;;;;5033711;28;20033;-48
2020/12/04 11:29:20;;;;;;;12.07;7.25;;;12.50;62.60;;;;;;5033332;28;20343;-47
2020/12/04 12:14:32;;;;;;;18.20;12.73;;;11.10;69.30;;;;;;5111835;27;20149;-46
2020/12/04 12:16:58;;;;;;;17.33;11.88;;;12.10;67.00;;;;;;5055947;28;20037;-46
2020/12/04 12:19:24;;;;;;;18.27;11.88;;;12.10;67.70;;;;;;5091501;28;20051;-47
2020/12/04 12:21:50;;;;;;;14.88;9.52;;;12.20;67.00;;;;;;5091143;28;20054;-47
2020/12/04 12:24:16;;;;;;;12.27;9.15;;;12.50;66.10;;;;;;5091649;28;20020;-46
2020/12/04 12:26:43;;;;;;;10.63;7.07;;;12.90;64.70;;;;;;5091025;28;20028;-47
2020/12/04 12:29:09;;;;;;;17.27;12.15;;;13.00;63.30;;;;;;5090989;28;20095;-46
2020/12/04 12:31:35;;;;;;;16.95;9.23;;;13.30;64.00;;;;;;5090977;28;20427;-47
2020/12/04 12:34:00;;;;;;;14.82;10.43;;;13.30;62.60;;;;;;5055324;28;20368;-47
2020/12/04 12:36:26;;;;;;;12.20;9.10;;;13.30;62.60;;;;;;5090832;28;20017;-47
2020/12/04 12:38:57;;;;;;;17.55;10.75;;;13.30;61.90;;;;;;5091118;28;20079;-47
2020/12/04 12:41:23;;;;;;;15.43;11.07;;;13.50;61.80;;;;;;5041205;28;20387;-47
2020/12/04 12:43:49;;;;;;;22.40;11.52;;;13.50;61.50;;;;;;5082347;28;20036;-47
2020/12/04 12:46:15;;;;;;;12.95;7.70;;;13.60;61.50;;;;;;5038962;28;20044;-47
2020/12/04 12:48:41;;;;;;;15.88;10.65;;;13.30;60.90;;;;;;5090544;28;20024;-47
2020/12/04 12:51:07;;;;;;;15.35;10.88;;;13.50;60.70;;;;;;5079878;28;20028;-47
2020/12/04 12:53:33;;;;;;;12.43;9.23;;;13.50;61.10;;;;;;5070660;28;20103;-47
2020/12/04 12:55:59;;;;;;;16.05;11.15;;;13.50;59.60;;;;;;5069877;28;20020;-49
2020/12/04 12:58:24;;;;;;;12.68;9.40;;;13.40;60.20;;;;;;4966970;28;20040;-48
2020/12/04 13:00:50;;;;;;;19.63;13.07;;;13.10;62.00;;;;;;5060701;28;20021;-48
2020/12/04 13:03:16;;;;;;;13.95;8.98;;;13.30;61.30;;;;;;5017972;28;20079;-51
2020/12/04 13:05:42;;;;;;;13.65;10.60;;;13.20;60.60;;;;;;5034365;28;20064;-47
2020/12/04 13:08:11;;;;;;;16.15;10.88;;;13.30;60.10;;;;;;5007706;28;20588;-45
2020/12/04 13:10:38;;;;;;;20.35;10.93;;;13.30;60.20;;;;;;5010284;28;20081;-48
2020/12/04 13:13:04;;;;;;;13.27;8.07;;;13.20;60.30;;;;;;4999582;28;20045;-51
2020/12/04 13:15:30;;;;;;;14.38;8.65;;;13.20;60.20;;;;;;4994618;28;20026;-49
2020/12/04 13:17:56;;;;;;;12.20;8.23;;;13.20;59.50;;;;;;4969678;28;20527;-51
2020/12/04 13:20:22;;;;;;;17.13;10.52;;;13.10;59.00;;;;;;5000697;28;20030;-51
2020/12/04 13:25:34;;;;;;;16.13;10.35;;;12.90;59.60;;;;;;5014292;28;20068;-51
2020/12/04 13:28:00;;;;;;;14.77;9.75;;;13.10;60.50;;;;;;5013987;28;20037;-51
2020/12/04 13:30:29;;;;;;;13.73;9.38;;;12.90;60.70;;;;;;5013921;28;20030;-51
2020/12/04 13:32:56;;;;;;;17.40;10.75;;;13.10;60.40;;;;;;5013484;28;20609;-47
2020/12/04 13:35:22;;;;;;;13.80;9.65;;;13.30;60.60;;;;;;5013997;28;20041;-47
2020/12/04 13:37:48;;;;;;;15.15;10.40;;;13.20;60.70;;;;;;5013729;28;20107;-47